createdAt,value
2022-08-19T00:00:15.167Z,24.10
2022-08-19T00:15:16.676Z,24.10
2022-08-19T00:30:18.174Z,24.00
2022-08-19T00:45:19.661Z,23.90
2022-08-19T01:00:21.155Z,23.90
2022-08-19T01:15:22.639Z,23.90
2022-08-19T01:30:24.179Z,23.80
2022-08-19T01:45:25.675Z,23.80
2022-08-19T02:00:27.898Z,23.70
2022-08-19T02:15:29.592Z,23.70
2022-08-19T02:30:31.105Z,23.70
2022-08-19T02:45:32.620Z,23.60
2022-08-19T03:00:34.123Z,23.60
2022-08-19T03:15:41.126Z,23.60
2022-08-19T03:30:43.099Z,23.60
2022-08-19T03:45:45.176Z,23.50
2022-08-19T04:00:46.702Z,23.50
2022-08-19T04:15:48.206Z,23.50
2022-08-19T04:30:49.706Z,23.50
2022-08-19T04:45:51.193Z,23.40
2022-08-19T05:00:57.935Z,23.40
2022-08-19T05:15:59.500Z,23.40
2022-08-19T05:31:01.467Z,23.40
2022-08-19T05:46:02.968Z,23.40
2022-08-19T06:01:04.462Z,23.50
2022-08-19T06:16:05.953Z,23.50
2022-08-19T06:31:07.439Z,23.60
2022-08-19T06:46:08.926Z,23.70
2022-08-19T07:01:10.669Z,23.90
2022-08-19T07:16:12.982Z,24.00
2022-08-19T07:31:15.310Z,24.10
2022-08-19T07:46:16.896Z,24.30
2022-08-19T08:01:18.417Z,24.50
2022-08-19T08:16:20.094Z,24.70
2022-08-19T08:31:21.630Z,24.90
2022-08-19T08:46:31.622Z,25.10
2022-08-19T09:01:34.069Z,25.20
2022-08-19T09:16:35.676Z,25.40
2022-08-19T09:31:37.215Z,25.50
2022-08-19T09:46:38.717Z,25.60
2022-08-19T10:01:40.315Z,25.80
2022-08-19T10:16:41.831Z,25.90
2022-08-19T10:32:00.569Z,26.00
2022-08-19T10:47:03.746Z,26.20
2022-08-19T11:02:18.719Z,26.50
2022-08-19T11:17:20.211Z,26.70
2022-08-19T11:32:21.821Z,27.00
2022-08-19T11:47:23.312Z,27.20
2022-08-19T12:02:24.808Z,27.40
2022-08-19T12:17:26.366Z,27.50
2022-08-19T12:32:27.890Z,27.70
2022-08-19T12:47:29.395Z,27.70
2022-08-19T13:02:38.357Z,27.80
2022-08-19T13:17:40.608Z,27.90
2022-08-19T13:32:42.101Z,27.80
2022-08-19T13:47:43.825Z,27.80
2022-08-19T14:02:45.318Z,27.80
2022-08-19T14:17:46.808Z,27.70
2022-08-19T14:32:48.307Z,27.70
2022-08-19T14:47:49.790Z,27.60
2022-08-19T15:02:51.311Z,27.60
2022-08-19T15:17:52.855Z,27.50
2022-08-19T15:32:54.354Z,27.40
2022-08-19T15:47:56.027Z,27.30
2022-08-19T16:02:57.666Z,27.20
2022-08-19T16:18:00.637Z,27.10
2022-08-19T16:33:02.121Z,26.90
2022-08-19T16:48:03.610Z,26.70
2022-08-19T17:03:05.093Z,26.60
2022-08-19T17:18:06.575Z,26.40
2022-08-19T17:33:08.058Z,26.30
2022-08-19T17:48:09.550Z,26.20
2022-08-19T18:03:11.042Z,26.10
2022-08-19T18:18:15.673Z,26.00
2022-08-19T18:33:17.261Z,25.90
2022-08-19T18:48:27.368Z,25.90
2022-08-19T19:03:29.637Z,25.70
2022-08-19T19:18:31.119Z,25.70
2022-08-19T19:33:32.601Z,25.60
2022-08-19T19:48:34.089Z,25.50
2022-08-19T20:03:35.580Z,25.40
2022-08-19T20:18:37.071Z,25.40
2022-08-19T20:33:38.566Z,25.20
2022-08-19T20:48:41.273Z,25.20
2022-08-19T21:03:43.327Z,25.10
2022-08-19T21:18:44.993Z,25.10
2022-08-19T21:33:46.496Z,25.00
2022-08-19T21:48:47.982Z,24.90
2022-08-19T22:03:49.487Z,25.00
2022-08-19T22:18:50.982Z,24.80
2022-08-19T22:33:52.477Z,24.80
2022-08-19T22:49:00.935Z,24.80
2022-08-19T23:04:03.976Z,24.70
2022-08-19T23:19:05.635Z,24.70
2022-08-19T23:34:07.202Z,24.60
2022-08-19T23:49:08.682Z,24.50
